Time;durP1;ratioP1;P1;durP2;ratioP2;P2;SDS_P1;SDS_P2;PMS_P1;PMS_P2;Temp;Humidity;BMP_temperature;BMP_pressure;BME280_temperature;BME280_humidity;BME280_pressure;Samples;Min_cycle;Max_cycle;Signal;HPM_P1;HPM_P2
2023/10/17 00:01:48;;;;;;;3.40;2.40;;;;;;;5.63;78.06;99058.90;105564;1263;61145;-23
2023/10/17 00:06:46;;;;;;;7.70;3.00;;;;;;;5.17;80.01;99058.17;105840;1254;74310;-24
2023/10/17 00:09:21;;;;;;;2.60;1.40;;;;;;;5.07;81.23;99064.08;105608;1254;72572;-23
2023/10/17 00:14:27;;;;;;;3.50;2.20;;;;;;;5.77;79.16;99062.14;105590;1258;61104;-23
2023/10/17 00:16:57;;;;;;;7.70;2.80;;;;;;;5.73;78.80;99061.90;105661;1259;71648;-23
2023/10/17 00:19:33;;;;;;;4.50;2.10;;;;;;;5.48;79.12;99058.21;105627;1263;74288;-22
2023/10/17 00:22:02;;;;;;;4.90;2.80;;;;;;;5.27;80.08;99055.04;105656;1260;72684;-22
2023/10/17 00:24:29;;;;;;;4.30;2.10;;;;;;;5.08;80.78;99063.32;105642;1257;61064;-22
2023/10/17 00:26:57;;;;;;;3.30;1.80;;;;;;;5.27;81.07;99063.46;105676;1260;61106;-22
2023/10/17 00:29:24;;;;;;;4.60;2.80;;;;;;;5.61;79.71;99060.36;105649;1258;72672;-22
2023/10/17 00:31:51;;;;;;;7.00;2.50;;;;;;;5.67;79.10;99055.73;105529;1258;74357;-22
2023/10/17 00:34:24;;;;;;;5.30;2.10;;;;;;;5.45;79.57;99064.60;105366;1257;72505;-22
2023/10/17 00:37:00;;;;;;;2.40;1.90;;;;;;;5.29;80.07;99060.39;105490;1255;61200;-22
2023/10/17 00:39:31;;;;;;;6.10;3.00;;;;;;;5.11;81.01;99058.20;105493;1261;61272;-22
2023/10/17 00:44:46;;;;;;;3.20;1.90;;;;;;;5.54;80.48;99063.57;105370;1258;73321;-22
2023/10/17 00:47:22;;;;;;;2.90;1.90;;;;;;;5.63;79.12;99063.52;105567;1258;72647;-22
2023/10/17 00:49:51;;;;;;;5.60;1.90;;;;;;;5.57;79.26;99067.39;105642;1258;61028;-22
2023/10/17 00:52:24;;;;;;;5.60;2.80;;;;;;;5.39;79.62;99065.69;105658;1255;61114;-22
2023/10/17 00:54:53;;;;;;;6.00;2.50;;;;;;;5.21;80.46;99067.43;105544;1258;73201;-22
2023/10/17 00:57:27;;;;;;;6.00;2.40;;;;;;;4.99;81.46;99071.27;105607;1258;74142;-22
2023/10/17 01:00:10;;;;;;;6.10;3.10;;;;;;;5.37;80.55;99070.74;105506;1257;71235;-22
2023/10/17 01:02:44;;;;;;;3.80;1.80;;;;;;;5.62;78.84;99071.49;105254;1267;61166;-22
2023/10/17 01:05:12;;;;;;;6.80;3.10;;;;;;;5.58;78.50;99075.58;105573;1260;61170;-23
2023/10/17 01:07:42;;;;;;;5.40;3.00;;;;;;;5.38;78.93;99077.41;105609;1259;73097;-22
2023/10/17 01:10:16;;;;;;;6.40;3.00;;;;;;;5.29;79.45;99080.18;105554;1260;73185;-22
2023/10/17 01:12:56;;;;;;;9.20;3.80;;;;;;;5.06;80.44;99081.20;105640;1258;72677;-22
2023/10/17 01:15:28;;;;;;;9.50;2.50;;;;;;;4.97;81.46;99090.79;105553;1257;61186;-22
2023/10/17 01:17:57;;;;;;;3.60;2.30;;;;;;;5.47;80.09;99085.36;105645;1260;61183;-22
2023/10/17 01:20:24;;;;;;;5.70;3.20;;;;;;;5.67;78.60;99091.71;105345;1257;72864;-22
2023/10/17 01:22:56;;;;;;;4.60;2.30;;;;;;;5.62;78.40;99089.27;105656;1260;74627;-22
2023/10/17 01:25:25;;;;;;;6.60;3.00;;;;;;;5.37;79.02;99091.95;105615;1257;71687;-22
2023/10/17 01:27:53;;;;;;;6.50;3.30;;;;;;;5.17;79.92;99096.20;105463;1258;61116;-22
2023/10/17 01:30:21;;;;;;;9.00;4.10;;;;;;;4.93;80.90;99099.45;105444;1255;61071;-23
2023/10/17 01:32:48;;;;;;;4.30;2.20;;;;;;;4.96;81.33;99103.74;105639;1260;71573;-22
2023/10/17 01:35:19;;;;;;;7.40;3.20;;;;;;;5.43;79.60;99101.59;105637;1261;74474;-22
2023/10/17 01:37:47;;;;;;;8.90;3.20;;;;;;;5.64;78.38;99107.21;105622;1258;72469;-22
2023/10/17 01:40:25;;;;;;;6.60;2.80;;;;;;;5.44;78.57;99107.56;105519;1262;61256;-22
2023/10/17 01:42:54;;;;;;;7.20;2.90;;;;;;;5.27;79.29;99113.92;105610;1257;61108;-22
2023/10/17 01:45:23;;;;;;;5.60;3.00;;;;;;;5.10;79.88;99120.89;105645;1263;72805;-22
2023/10/17 01:47:53;;;;;;;6.80;3.50;;;;;;;4.84;81.02;99117.17;105653;1258;74427;-22
2023/10/17 01:50:23;;;;;;;6.80;2.30;;;;;;;4.72;81.94;99117.00;105582;1256;73252;-22
2023/10/17 01:52:54;;;;;;;7.10;2.40;;;;;;;5.13;81.07;99119.85;105437;1257;61131;-22
2023/10/17 01:55:24;;;;;;;5.40;3.50;;;;;;;5.48;79.27;99119.52;105530;1260;61402;-22
2023/10/17 01:57:54;;;;;;;4.10;2.30;;;;;;;5.45;78.87;99121.09;105532;1262;73029;-22
2023/10/17 02:00:29;;;;;;;5.40;3.40;;;;;;;5.25;79.43;99123.98;105641;1259;74458;-23
2023/10/17 02:02:57;;;;;;;3.90;2.70;;;;;;;5.05;80.35;99121.70;105646;1256;72636;-24
2023/10/17 02:05:24;;;;;;;9.10;3.50;;;;;;;4.83;81.23;99125.98;105642;1257;61113;-23
2023/10/17 02:07:51;;;;;;;5.00;2.50;;;;;;;4.72;82.15;99124.70;105588;1259;61167;-23
2023/10/17 02:10:21;;;;;;;6.50;2.20;;;;;;;5.19;81.32;99126.93;105514;1257;72877;-24
2023/10/17 02:12:48;;;;;;;6.70;2.60;;;;;;;5.54;79.58;99128.30;105475;1259;74779;-24
2023/10/17 02:15:19;;;;;;;6.20;3.00;;;;;;;5.55;79.02;99127.59;105370;1261;72680;-23
2023/10/17 02:17:47;;;;;;;5.90;3.10;;;;;;;5.38;79.24;99127.70;105605;1256;61167;-21
2023/10/17 02:20:21;;;;;;;5.00;2.80;;;;;;;5.09;80.00;99132.14;105635;1259;61039;-22
2023/10/17 02:22:51;;;;;;;6.80;3.80;;;;;;;4.92;81.00;99135.30;105318;1261;72773;-24
2023/10/17 02:25:32;;;;;;;3.50;2.10;;;;;;;4.83;81.56;99138.90;105471;1259;74477;-22
2023/10/17 02:28:00;;;;;;;4.90;2.10;;;;;;;5.34;80.43;99141.90;105590;1266;73029;-21
2023/10/17 02:30:27;;;;;;;7.80;3.00;;;;;;;5.61;78.49;99137.55;105460;1261;61193;-22
2023/10/17 02:32:54;;;;;;;4.00;2.50;;;;;;;5.61;78.21;99143.56;105651;1260;60993;-22
2023/10/17 02:35:41;;;;;;;6.30;2.90;;;;;;;5.37;78.63;99146.20;105656;1257;72980;-21
2023/10/17 02:38:08;;;;;;;6.90;3.50;;;;;;;5.19;79.22;99146.52;105511;1260;74482;-22
2023/10/17 02:40:38;;;;;;;9.20;3.50;;;;;;;4.99;80.23;99151.79;105525;1257;72738;-21
2023/10/17 02:43:05;;;;;;;6.80;2.80;;;;;;;4.90;80.81;99152.27;105546;1258;62715;-22
2023/10/17 02:45:32;;;;;;;5.70;3.20;;;;;;;5.29;80.20;99160.90;105462;1259;61112;-21
2023/10/17 02:48:23;;;;;;;8.50;3.30;;;;;;;5.72;78.57;99161.69;105314;1258;73126;-24
2023/10/17 02:50:58;;;;;;;5.40;3.00;;;;;;;5.73;77.76;99165.59;105680;1258;74157;-23
2023/10/17 02:53:26;;;;;;;7.50;3.60;;;;;;;5.38;78.12;99165.05;105584;1257;72439;-22
2023/10/17 02:55:53;;;;;;;6.50;3.60;;;;;;;5.31;78.69;99169.26;105648;1255;61070;-23
2023/10/17 02:58:20;;;;;;;5.60;4.20;;;;;;;5.10;79.67;99172.84;105611;1255;61089;-23
2023/10/17 03:00:47;;;;;;;6.40;3.40;;;;;;;4.96;80.24;99172.60;105511;1257;73005;-23
2023/10/17 03:03:14;;;;;;;5.50;2.50;;;;;;;5.31;79.55;99177.02;105512;1259;74337;-23
2023/10/17 03:05:44;;;;;;;8.10;3.50;;;;;;;5.56;78.18;99179.50;105566;1257;72616;-23
2023/10/17 03:08:15;;;;;;;6.00;3.60;;;;;;;5.62;77.72;99180.71;105632;1257;61072;-23
2023/10/17 03:10:43;;;;;;;7.50;3.70;;;;;;;5.48;77.83;99179.62;105631;1260;61137;-23
2023/10/17 03:15:48;;;;;;;6.60;3.20;;;;;;;5.17;79.19;99185.20;105490;1257;74385;-23
2023/10/17 03:18:16;;;;;;;4.70;2.50;;;;;;;5.01;80.01;99184.88;105447;1259;72741;-23
2023/10/17 03:20:50;;;;;;;2.90;2.10;;;;;;;5.48;79.22;99186.17;105616;1257;61057;-23
2023/10/17 03:23:20;;;;;;;;;;;;;;;5.82;77.51;99185.20;105528;1258;61254;-23
2023/10/17 03:25:47;;;;;;;9.10;3.50;;;;;;;5.75;77.02;99189.92;105578;1258;74161;-23
2023/10/17 03:28:17;;;;;;;5.40;2.60;;;;;;;5.54;77.57;99189.10;105548;1257;74171;-23
2023/10/17 03:30:48;;;;;;;5.00;3.20;;;;;;;5.33;78.33;99188.25;105605;1258;72670;-23
2023/10/17 03:33:24;;;;;;;7.20;2.90;;;;;;;5.14;79.33;99189.31;105247;1258;62641;-23
2023/10/17 03:36:04;;;;;;;6.20;2.90;;;;;;;4.95;79.96;99189.48;105388;1255;61175;-23
2023/10/17 03:38:33;;;;;;;7.60;3.00;;;;;;;5.18;79.22;99195.61;105668;1258;73737;-23
2023/10/17 03:41:15;;;;;;;7.30;3.40;;;;;;;5.61;77.75;99203.02;105484;1261;73908;-22
2023/10/17 03:43:52;;;;;;;7.30;3.40;;;;;;;5.57;76.93;99203.05;105665;1260;72642;-22
2023/10/17 03:46:25;;;;;;;12.70;4.20;;;;;;;5.40;77.34;99210.06;105539;1256;61084;-22
2023/10/17 03:48:57;;;;;;;10.70;3.60;;;;;;;5.13;77.95;99204.20;105428;1259;61110;-22
2023/10/17 03:51:25;;;;;;;9.70;4.10;;;;;;;4.86;78.16;99201.53;105515;1261;72722;-22
2023/10/17 03:54:06;;;;;;;6.60;3.60;;;;;;;4.60;78.86;99197.60;105629;1257;74306;-23
2023/10/17 03:56:45;;;;;;;7.70;4.40;;;;;;;4.83;78.61;99198.09;105450;1262;72672;-22
2023/10/17 04:01:41;;;;;;;6.60;4.20;;;;;;;5.14;77.53;99198.43;105477;1257;61176;-22
2023/10/17 04:04:08;;;;;;;7.10;4.40;;;;;;;4.95;77.66;99199.52;105542;1257;73549;-22
2023/10/17 04:06:51;;;;;;;6.50;4.20;;;;;;;4.70;78.70;99203.61;105626;1260;74065;-22
2023/10/17 04:09:28;;;;;;;11.10;5.20;;;;;;;4.50;79.38;99203.28;105590;1257;72532;-22
2023/10/17 04:11:58;;;;;;;9.40;4.80;;;;;;;4.56;80.23;99213.67;105465;1256;61183;-22
2023/10/17 04:14:34;;;;;;;8.30;4.40;;;;;;;5.02;78.55;99214.22;105432;1261;61169;-22
2023/10/17 04:17:02;;;;;;;9.50;4.90;;;;;;;5.07;77.73;99214.65;105505;1258;73722;-22
2023/10/17 04:19:31;;;;;;;7.60;4.20;;;;;;;4.80;77.86;99215.77;105634;1256;74402;-22
2023/10/17 04:24:45;;;;;;;7.20;4.60;;;;;;;4.57;79.73;99230.46;105530;1254;61067;-22
2023/10/17 04:29:44;;;;;;;6.90;4.00;;;;;;;4.64;80.09;99235.39;105509;1257;73676;-22
2023/10/17 04:32:14;;;;;;;6.30;4.30;;;;;;;5.03;78.28;99234.52;105463;1257;74409;-22
2023/10/17 04:34:48;;;;;;;8.30;4.90;;;;;;;4.89;78.06;99241.30;105519;1257;71995;-22
2023/10/17 04:37:24;;;;;;;8.90;4.60;;;;;;;4.78;78.85;99248.06;105662;1256;61182;-22
2023/10/17 04:45:28;;;;;;;10.10;5.00;;;;;;;4.32;81.12;99258.58;105444;1259;74338;-22
2023/10/17 04:48:11;;;;;;;9.80;4.50;;;;;;;4.71;80.10;99261.15;105573;1257;72752;-22
2023/10/17 04:51:12;;;;;;;10.60;4.70;;;;;;;5.04;78.55;99264.73;105557;1257;61131;-22
2023/10/17 04:53:47;;;;;;;8.30;4.20;;;;;;;4.73;78.96;99270.51;104847;1268;61214;-23
2023/10/17 04:56:23;;;;;;;8.90;4.00;;;;;;;4.65;79.51;99270.27;104937;1264;73628;-22
2023/10/17 04:58:53;;;;;;;5.60;3.90;;;;;;;4.48;80.18;99271.67;104796;1264;74226;-22
2023/10/17 05:01:39;;;;;;;5.90;4.10;;;;;;;4.24;81.07;99268.10;105069;1265;72492;-22
2023/10/17 05:05:15;;;;;;;8.40;4.50;;;;;;;4.57;80.78;99278.77;104778;1264;61395;-22
2023/10/17 06:18:58;;;;;;;7.30;5.80;;;;;;;4.45;80.29;99357.94;105574;1257;73909;-24
2023/10/17 06:30:46;;;;;;;7.00;4.00;;;;;;;4.75;80.14;99358.64;105449;1260;61247;-23
2023/10/17 06:33:56;;;;;;;10.00;5.10;;;;;;;4.74;78.75;99363.36;105597;1259;74503;-23
2023/10/17 06:35:54;;;;;;;7.30;4.80;;;;;;;4.66;79.69;99373.41;105552;1257;73610;-23
2023/10/17 06:38:45;;;;;;;9.70;5.00;;;;;;;4.38;80.00;99373.58;105581;1257;72569;-23
2023/10/17 06:41:27;;;;;;;8.50;4.40;;;;;;;3.97;81.26;99379.89;105669;1259;61108;-23
2023/10/17 06:43:58;;;;;;;10.30;5.80;;;;;;;3.81;82.26;99383.09;105412;1257;61171;-23
2023/10/17 06:47:17;;;;;;;3.90;3.20;;;;;;;3.91;83.05;99383.48;105446;1262;73834;-23
2023/10/17 06:50:16;;;;;;;9.00;4.70;;;;;;;4.50;80.92;99391.93;105514;1257;74895;-23
2023/10/17 06:54:50;;;;;;;6.80;4.80;;;;;;;4.27;80.60;99392.05;105462;1258;61029;-23
2023/10/17 06:57:20;;;;;;;9.50;4.60;;;;;;;4.00;81.91;99391.64;105572;1259;61138;-24
2023/10/17 06:59:51;;;;;;;7.80;6.20;;;;;;;3.99;82.87;99395.62;105379;1257;73744;-23
2023/10/17 07:02:34;;;;;;;10.00;4.20;;;;;;;3.97;82.57;99395.91;105460;1261;73350;-23
2023/10/17 07:05:01;;;;;;;10.60;4.90;;;;;;;4.57;81.17;99395.86;105271;1257;72711;-23
2023/10/17 07:07:40;;;;;;;8.60;4.20;;;;;;;4.97;79.80;99398.11;105612;1257;61170;-23
2023/10/17 07:10:24;;;;;;;10.50;5.50;;;;;;;4.97;78.82;99396.38;105459;1255;61151;-23
2023/10/17 07:13:29;;;;;;;7.40;5.70;;;;;;;4.68;78.67;99400.30;105600;1257;73987;-23
2023/10/17 07:16:04;;;;;;;7.60;5.50;;;;;;;4.44;79.59;99404.24;105592;1257;74243;-24
2023/10/17 07:18:47;;;;;;;7.90;5.80;;;;;;;4.35;80.65;99405.41;105605;1256;72724;-23
2023/10/17 07:23:45;;;;;;;5.90;3.90;;;;;;;5.23;78.29;99400.55;105525;1259;61112;-23
2023/10/17 07:28:56;;;;;;;7.60;5.10;;;;;;;5.22;77.33;99418.67;105574;1257;74384;-23
2023/10/17 07:31:23;;;;;;;12.00;5.80;;;;;;;4.94;77.83;99418.40;105574;1257;73166;-23
2023/10/17 07:34:33;;;;;;;8.10;4.40;;;;;;;4.84;78.43;99426.29;105435;1257;61119;-23
2023/10/17 07:36:43;;;;;;;9.30;5.80;;;;;;;4.70;78.83;99431.14;105582;1259;61183;-23
2023/10/17 07:39:24;;;;;;;6.60;3.50;;;;;;;4.82;79.08;99433.11;105618;1255;74243;-23
2023/10/17 07:41:54;;;;;;;6.90;4.20;;;;;;;5.24;77.15;99434.91;105492;1259;73916;-23
2023/10/17 07:44:29;;;;;;;8.60;4.40;;;;;;;5.28;76.05;99437.64;105485;1262;72535;-23
2023/10/17 07:49:43;;;;;;;9.10;5.80;;;;;;;5.13;76.69;99443.07;105652;1257;61135;-23
2023/10/17 07:52:17;;;;;;;9.70;5.50;;;;;;;5.01;77.11;99446.10;105302;1255;73839;-23
2023/10/17 07:54:57;;;;;;;8.60;5.80;;;;;;;4.82;77.95;99438.65;105311;1257;74255;-23
2023/10/17 07:57:25;;;;;;;5.60;4.30;;;;;;;4.74;78.63;99435.73;105500;1257;72627;-23
2023/10/17 07:59:52;;;;;;;7.80;4.30;;;;;;;5.29;77.58;99442.39;105179;1256;61020;-23
2023/10/17 08:02:23;;;;;;;12.90;5.00;;;;;;;5.69;75.72;99446.29;105562;1259;61228;-23
2023/10/17 08:05:19;;;;;;;8.00;4.30;;;;;;;5.78;74.96;99449.55;105395;1257;73893;-23
2023/10/17 08:07:49;;;;;;;6.50;4.30;;;;;;;5.67;75.31;99448.82;105495;1256;75525;-23
2023/10/17 08:10:39;;;;;;;10.30;5.50;;;;;;;5.52;75.38;99450.64;105202;1266;72924;-23
2023/10/17 08:13:11;;;;;;;7.20;5.30;;;;;;;5.37;76.05;99454.20;105260;1264;61157;-23
2023/10/17 08:15:46;;;;;;;8.10;5.50;;;;;;;5.32;77.06;99453.26;105264;1264;61182;-23
2023/10/17 08:18:16;;;;;;;5.00;3.60;;;;;;;5.54;76.98;99453.96;105225;1260;73919;-23
2023/10/17 08:23:19;;;;;;;7.40;4.10;;;;;;;6.01;72.80;99455.20;105216;1260;70206;-23
2023/10/17 08:25:56;;;;;;;6.50;3.70;;;;;;;5.95;72.95;99463.81;105215;1260;61055;-23
2023/10/17 08:31:20;;;;;;;9.00;4.70;;;;;;;5.60;74.58;99456.44;105174;1267;73872;-23
2023/10/17 08:42:05;;;;;;;5.00;2.50;;;;;;;5.83;72.98;99457.91;105267;1265;61323;-23
2023/10/17 08:44:37;;;;;;;3.70;3.10;;;;;;;5.94;72.12;99463.55;105282;1257;74158;-23
2023/10/17 08:47:04;;;;;;;11.00;4.30;;;;;;;6.00;72.07;99454.91;105494;1262;73121;-22
2023/10/17 08:49:33;;;;;;;5.30;3.80;;;;;;;5.97;72.51;99459.73;105550;1262;71493;-22
2023/10/17 08:52:00;;;;;;;7.60;3.50;;;;;;;5.91;72.83;99459.05;105308;1257;61301;-23
2023/10/17 08:54:32;;;;;;;6.10;3.80;;;;;;;5.83;72.74;99459.64;105153;1262;61251;-23
2023/10/17 08:57:01;;;;;;;6.40;4.00;;;;;;;5.95;73.84;99468.83;105588;1257;74173;-23
2023/10/17 09:05:26;;;;;;;6.40;4.40;;;;;;;6.54;71.68;99461.92;104907;1261;61314;-23
2023/10/17 09:07:55;;;;;;;9.50;5.10;;;;;;;6.55;71.39;99464.27;105514;1259;61475;-23
2023/10/17 09:10:36;;;;;;;6.10;3.80;;;;;;;6.72;71.24;99462.60;105742;1257;75279;-23
2023/10/17 09:13:52;;;;;;;6.20;4.60;;;;;;;6.57;70.91;99464.33;105638;1257;74312;-23
2023/10/17 09:16:08;;;;;;;4.60;3.50;;;;;;;6.57;71.52;99464.31;105598;1256;71617;-23
2023/10/17 09:18:42;;;;;;;7.80;4.20;;;;;;;7.05;70.40;99464.14;105561;1257;61164;-23
2023/10/17 09:21:09;;;;;;;7.20;4.50;;;;;;;7.37;69.55;99470.27;105594;1255;61109;-23
2023/10/17 09:23:41;;;;;;;7.80;4.50;;;;;;;7.80;68.56;99462.29;105665;1259;73805;-23
2023/10/17 09:26:10;;;;;;;7.40;4.50;;;;;;;7.81;67.02;99458.56;105427;1259;73524;-23
2023/10/17 09:28:37;;;;;;;10.80;4.80;;;;;;;7.54;66.43;99460.28;105650;1257;71482;-23
2023/10/17 09:31:08;;;;;;;8.10;4.50;;;;;;;7.90;66.06;99459.41;105562;1257;61136;-24
2023/10/17 09:33:37;;;;;;;6.00;3.80;;;;;;;8.18;66.27;99451.23;105593;1255;61276;-24
2023/10/17 09:36:04;;;;;;;7.00;4.20;;;;;;;7.95;64.46;99445.23;105576;1257;73814;-23
2023/10/17 09:38:41;;;;;;;10.30;5.20;;;;;;;7.97;65.21;99450.11;105468;1257;74436;-23
2023/10/17 09:41:08;;;;;;;9.90;4.00;;;;;;;7.83;64.26;99447.73;105299;1257;72783;-23
2023/10/17 09:43:45;;;;;;;9.10;4.50;;;;;;;7.60;65.41;99444.52;105415;1257;61821;-24
2023/10/17 09:46:13;;;;;;;5.90;4.10;;;;;;;7.69;65.55;99439.67;105375;1257;61400;-24
2023/10/17 09:48:42;;;;;;;6.10;3.90;;;;;;;7.71;64.77;99441.56;105635;1257;73746;-24
2023/10/17 09:51:21;;;;;;;5.40;4.00;;;;;;;7.97;65.07;99438.54;105596;1258;74384;-23
2023/10/17 09:53:53;;;;;;;8.90;3.90;;;;;;;8.50;62.30;99427.39;105504;1257;72380;-24
2023/10/17 09:56:40;;;;;;;6.00;3.40;;;;;;;8.51;62.62;99431.93;105437;1257;61814;-24
2023/10/17 09:59:13;;;;;;;7.80;3.10;;;;;;;8.80;60.78;99432.30;105268;1257;61826;-23
2023/10/17 10:01:40;;;;;;;4.80;3.00;;;;;;;9.15;59.63;99426.30;105393;1264;72634;-23
2023/10/17 10:04:07;;;;;;;5.50;3.40;;;;;;;9.61;58.77;99426.55;105449;1257;73039;-23
2023/10/17 10:06:36;;;;;;;7.30;3.30;;;;;;;9.99;58.54;99419.48;105648;1257;74070;-23
2023/10/17 10:09:13;;;;;;;5.30;3.10;;;;;;;10.20;56.87;99418.46;105325;1255;61572;-23
2023/10/17 10:11:53;;;;;;;5.70;2.90;;;;;;;9.89;57.19;99409.61;105253;1257;61009;-24
2023/10/17 10:14:23;;;;;;;5.50;2.80;;;;;;;8.85;58.23;99411.73;105619;1257;73958;-24
2023/10/17 10:16:54;;;;;;;4.50;2.90;;;;;;;9.20;57.87;99404.98;105540;1257;74363;-22
2023/10/17 10:19:27;;;;;;;4.70;2.40;;;;;;;9.42;57.05;99405.65;105230;1256;72990;-24
2023/10/17 10:21:57;;;;;;;3.10;2.30;;;;;;;9.84;56.17;99397.86;105296;1257;61104;-24
2023/10/17 10:24:32;;;;;;;5.50;2.30;;;;;;;10.22;55.45;99403.79;105341;1259;61136;-23
2023/10/17 10:29:39;;;;;;;5.00;2.10;;;;;;;10.77;53.08;99402.98;105578;1257;74322;-23
2023/10/17 10:32:23;;;;;;;3.40;1.90;;;;;;;10.45;52.50;99399.64;105655;1257;72586;-23
2023/10/17 10:34:50;;;;;;;3.80;1.70;;;;;;;10.53;52.25;99400.48;105551;1256;61306;-24
2023/10/17 10:37:21;;;;;;;3.50;2.20;;;;;;;10.34;49.70;99394.73;105606;1255;61095;-24
2023/10/17 10:40:22;;;;;;;3.00;1.60;;;;;;;10.10;50.06;99393.88;105613;1257;73838;-24
2023/10/17 10:42:50;;;;;;;4.00;2.00;;;;;;;10.13;51.07;99387.77;105639;1257;74398;-22
2023/10/17 10:45:40;;;;;;;3.30;2.00;;;;;;;10.19;50.15;99386.08;105448;1263;72624;-23
2023/10/17 10:48:15;;;;;;;4.50;2.30;;;;;;;10.43;50.40;99382.29;105577;1257;61107;-23
2023/10/17 10:50:43;;;;;;;7.60;2.20;;;;;;;10.35;49.66;99384.23;105347;1259;61103;-23
2023/10/17 10:53:22;;;;;;;2.70;1.60;;;;;;;10.50;49.82;99382.27;105392;1257;73822;-23
2023/10/17 10:56:02;;;;;;;2.80;1.80;;;;;;;10.75;49.04;99374.69;105607;1257;73780;-23
2023/10/17 10:58:31;;;;;;;5.00;1.80;;;;;;;10.89;47.29;99376.02;105275;1257;73377;-23
2023/10/17 11:00:59;;;;;;;3.10;2.00;;;;;;;10.98;46.72;99377.91;105584;1255;61520;-21
2023/10/17 11:03:26;;;;;;;3.10;1.80;;;;;;;11.19;46.66;99378.79;105346;1257;60986;-21
2023/10/17 11:06:20;;;;;;;3.20;1.90;;;;;;;11.31;46.33;99371.70;105600;1257;73811;-23
2023/10/17 11:08:47;;;;;;;3.20;2.00;;;;;;;11.18;45.23;99370.66;105024;1263;73857;-23
2023/10/17 11:11:16;;;;;;;3.80;2.10;;;;;;;10.92;45.12;99373.56;104921;1265;71696;-23
2023/10/17 11:13:45;;;;;;;4.30;1.80;;;;;;;10.76;44.42;99373.52;104922;1262;61237;-23
2023/10/17 11:16:19;;;;;;;3.10;1.70;;;;;;;10.34;45.18;99371.52;104938;1263;61194;-23
2023/10/17 11:18:47;;;;;;;3.90;1.70;;;;;;;10.02;44.62;99371.05;105035;1262;73770;-23
2023/10/17 11:21:18;;;;;;;4.20;2.30;;;;;;;10.08;43.92;99373.23;104981;1263;73971;-23
2023/10/17 11:23:59;;;;;;;4.30;2.00;;;;;;;10.11;43.30;99373.52;104960;1262;71672;-23
2023/10/17 11:26:29;;;;;;;6.30;1.70;;;;;;;10.46;43.73;99370.27;104900;1268;61200;-23
2023/10/17 11:28:56;;;;;;;5.80;1.90;;;;;;;10.66;43.89;99367.88;104834;1262;61249;-23
2023/10/17 11:31:26;;;;;;;4.60;1.90;;;;;;;10.61;43.24;99366.73;104262;1264;3372835;-24
2023/10/17 11:33:55;;;;;;;3.00;2.00;;;;;;;10.54;43.92;99367.91;104831;1270;61251;-23
2023/10/17 11:36:23;;;;;;;2.90;1.70;;;;;;;10.40;43.97;99368.79;105026;1262;61174;-24
2023/10/17 11:38:56;;;;;;;4.30;2.00;;;;;;;10.09;44.92;99374.39;105106;1262;72347;-23
2023/10/17 11:41:31;;;;;;;;;;;;;;;9.84;44.96;99364.73;104832;1270;61144;-23
2023/10/17 11:44:04;;;;;;;6.20;2.30;;;;;;;10.07;44.98;99363.23;105032;1267;61357;-23
2023/10/17 11:46:31;;;;;;;3.50;1.50;;;;;;;10.12;44.66;99363.02;105259;1262;73857;-23
2023/10/17 11:49:20;;;;;;;3.50;1.90;;;;;;;10.12;44.21;99363.90;105628;1257;74365;-24
2023/10/17 11:51:57;;;;;;;4.40;1.50;;;;;;;9.66;42.52;99363.61;105531;1257;72643;-23
2023/10/17 11:54:24;;;;;;;3.30;1.60;;;;;;;9.22;42.59;99362.77;105272;1259;61076;-24
2023/10/17 11:56:54;;;;;;;2.20;1.30;;;;;;;9.37;42.65;99363.40;105436;1257;61142;-24
2023/10/17 11:59:22;;;;;;;3.00;1.40;;;;;;;9.73;42.25;99360.13;105446;1257;73523;-24
2023/10/17 12:01:52;;;;;;;2.70;1.40;;;;;;;9.88;42.51;99357.02;105667;1257;74233;-24
2023/10/17 12:04:19;;;;;;;3.00;1.60;;;;;;;9.95;43.11;99355.95;105641;1256;73175;-23
2023/10/17 12:06:47;;;;;;;4.10;1.80;;;;;;;9.86;43.06;99357.98;105613;1257;61077;-23
2023/10/17 12:09:23;;;;;;;2.50;1.40;;;;;;;9.76;43.07;99356.30;105590;1259;61244;-24
2023/10/17 12:11:52;;;;;;;5.10;1.60;;;;;;;9.84;43.23;99356.61;105429;1257;73785;-25
2023/10/17 12:14:19;;;;;;;3.90;1.70;;;;;;;10.01;43.62;99357.28;105175;1262;73493;-23
2023/10/17 12:16:58;;;;;;;3.30;1.50;;;;;;;10.01;43.49;99358.48;105549;1257;71601;-22
2023/10/17 12:19:26;;;;;;;5.60;2.10;;;;;;;10.25;43.90;99356.54;105439;1257;61240;-24
2023/10/17 12:21:54;;;;;;;4.20;1.90;;;;;;;10.29;42.48;99352.55;105293;1263;61154;-24
2023/10/17 12:24:28;;;;;;;3.50;1.80;;;;;;;10.26;42.28;99353.80;105539;1256;73792;-24
2023/10/17 12:26:56;;;;;;;4.00;1.90;;;;;;;10.37;42.46;99351.33;105380;1261;74771;-23
2023/10/17 12:29:28;;;;;;;4.30;1.60;;;;;;;10.48;42.69;99350.12;105483;1256;71932;-23
2023/10/17 12:32:00;;;;;;;3.10;1.50;;;;;;;10.46;42.33;99344.41;105479;1255;61845;-24
2023/10/17 12:34:27;;;;;;;2.70;1.60;;;;;;;10.14;42.26;99342.61;105524;1259;61188;-24
2023/10/17 12:36:55;;;;;;;3.70;1.90;;;;;;;10.23;42.78;99344.34;105286;1257;73993;-24
2023/10/17 12:39:23;;;;;;;2.50;1.60;;;;;;;10.16;42.42;99338.83;105590;1259;74415;-24
2023/10/17 12:41:50;;;;;;;5.00;1.90;;;;;;;10.18;43.06;99341.90;105628;1257;71716;-22
2023/10/17 12:44:20;;;;;;;4.60;1.60;;;;;;;10.22;43.00;99343.91;105563;1257;61145;-23
2023/10/17 12:46:47;;;;;;;5.20;1.80;;;;;;;10.38;42.10;99341.04;105557;1259;61516;-22
2023/10/17 12:49:15;;;;;;;4.60;1.90;;;;;;;10.10;42.84;99335.95;105549;1257;74290;-23
2023/10/17 12:51:43;;;;;;;2.80;1.40;;;;;;;9.94;43.01;99332.06;105483;1257;74764;-23
2023/10/17 12:54:10;;;;;;;4.80;1.80;;;;;;;10.05;43.58;99333.36;105381;1255;72371;-23
2023/10/17 12:56:37;;;;;;;2.40;1.50;;;;;;;10.05;43.46;99333.22;105536;1257;61226;-23
2023/10/17 12:59:05;;;;;;;4.00;1.80;;;;;;;9.85;43.73;99339.86;105511;1259;61762;-23
2023/10/17 13:01:32;;;;;;;3.10;1.60;;;;;;;9.78;43.86;99343.64;105401;1257;73779;-23
2023/10/17 13:03:59;;;;;;;3.20;1.50;;;;;;;9.81;43.29;99336.02;105556;1255;74187;-23
2023/10/17 13:06:27;;;;;;;4.80;2.00;;;;;;;9.80;43.59;99338.34;105331;1257;72594;-24
2023/10/17 13:08:58;;;;;;;3.70;1.70;;;;;;;9.94;44.46;99340.38;105501;1257;61727;-23
2023/10/17 13:11:27;;;;;;;4.80;1.60;;;;;;;9.98;43.98;99335.98;105623;1259;61151;-23
2023/10/17 13:13:55;;;;;;;2.60;1.40;;;;;;;9.95;42.97;99333.89;105643;1257;75304;-23
2023/10/17 13:16:26;;;;;;;3.30;1.60;;;;;;;10.00;43.23;99333.90;105512;1254;74203;-24
2023/10/17 13:19:00;;;;;;;2.10;1.50;;;;;;;10.11;43.63;99333.77;105628;1257;73398;-23
2023/10/17 13:21:27;;;;;;;4.00;1.40;;;;;;;10.16;43.46;99330.31;105684;1259;61177;-22
2023/10/17 13:23:56;;;;;;;3.10;1.20;;;;;;;10.17;43.40;99328.80;105658;1254;61508;-23
2023/10/17 13:26:24;;;;;;;3.10;1.50;;;;;;;10.12;44.27;99329.20;105666;1253;75194;-23
2023/10/17 13:28:51;;;;;;;3.20;1.90;;;;;;;10.17;43.31;99326.40;105661;1260;73671;-24
2023/10/17 13:31:18;;;;;;;4.60;1.30;;;;;;;10.17;43.85;99330.94;105652;1254;72670;-23
2023/10/17 13:33:46;;;;;;;4.60;1.60;;;;;;;10.16;42.80;99329.80;105341;1254;61107;-23
2023/10/17 13:36:16;;;;;;;2.70;1.50;;;;;;;10.08;42.48;99324.70;105319;1259;61135;-23
2023/10/17 13:38:44;;;;;;;1.80;1.40;;;;;;;10.02;42.15;99325.27;105613;1253;73574;-23
2023/10/17 13:41:15;;;;;;;2.60;1.60;;;;;;;9.85;42.62;99325.51;105534;1258;74987;-23
2023/10/17 13:43:47;;;;;;;6.60;1.60;;;;;;;9.78;41.90;99326.66;105587;1253;72643;-23
2023/10/17 13:46:16;;;;;;;5.70;1.90;;;;;;;9.65;42.31;99328.68;105570;1253;61065;-23
2023/10/17 13:48:49;;;;;;;3.70;1.50;;;;;;;9.56;43.23;99330.00;105443;1260;61824;-23
2023/10/17 13:51:18;;;;;;;3.70;1.50;;;;;;;9.49;43.81;99329.81;105623;1259;74054;-23
2023/10/17 13:53:45;;;;;;;13.30;2.10;;;;;;;9.49;43.84;99330.55;105452;1262;74526;-23
2023/10/17 13:56:18;;;;;;;2.10;1.20;;;;;;;9.53;44.45;99330.39;105650;1254;74102;-23
2023/10/17 13:58:46;;;;;;;2.90;1.40;;;;;;;9.54;44.64;99328.06;105324;1255;61132;-22
2023/10/17 14:01:32;;;;;;;5.10;1.70;;;;;;;9.45;44.50;99322.80;105707;1258;61162;-23
2023/10/17 14:04:01;;;;;;;3.80;1.60;;;;;;;9.26;44.62;99322.05;105688;1254;73801;-23
2023/10/17 14:06:34;;;;;;;4.50;1.70;;;;;;;9.16;44.51;99320.21;105671;1254;74292;-23
2023/10/17 14:09:02;;;;;;;3.20;1.50;;;;;;;9.16;44.71;99322.00;105676;1254;73092;-23
2023/10/17 14:11:30;;;;;;;3.70;1.30;;;;;;;9.08;45.30;99321.83;105522;1254;61137;-24
2023/10/17 14:13:57;;;;;;;2.30;1.50;;;;;;;9.05;45.90;99319.71;105661;1259;61062;-23